Time;durP1;ratioP1;P1;durP2;ratioP2;P2;SDS_P1;SDS_P2;PMS_P1;PMS_P2;Temp;Humidity;BMP_temperature;BMP_pressure;BME280_temperature;BME280_humidity;BME280_pressure;Samples;Min_cycle;Max_cycle;Signal;HPM_P1;HPM_P2
2022/08/15 00:00:56;;;;;;;7.150001;5.95;;;;;;;19.33;55.13281;94393.48;;;;
2022/08/15 00:01:57;;;;;;;7.150001;5.95;;;;;;;19.33;55.13281;94393.48;;;;
2022/08/15 00:02:58;;;;;;;7.1;6.450001;;;;;;;19.35;55.20313;94396.14;;;;
2022/08/15 00:03:59;;;;;;;7.1;6.450001;;;;;;;19.35;55.20313;94396.14;;;;
2022/08/15 00:05:01;;;;;;;7.1;6.450001;;;;;;;19.35;55.20313;94396.14;;;;
2022/08/15 00:06:03;;;;;;;7.1;6.450001;;;;;;;19.35;55.20313;94396.14;;;;
2022/08/15 00:07:07;;;;;;;7.1;6.450001;;;;;;;19.35;55.20313;94396.14;;;;
2022/08/15 00:08:07;;;;;;;7.1;6.450001;;;;;;;19.35;55.20313;94396.14;;;;
2022/08/15 00:09:09;;;;;;;7.1;6.450001;;;;;;;19.35;55.20313;94396.14;;;;
2022/08/15 00:10:13;;;;;;;7.1;6.450001;;;;;;;19.35;55.20313;94396.14;;;;
2022/08/15 00:11:15;;;;;;;7.1;6.450001;;;;;;;19.35;55.20313;94396.14;;;;
2022/08/15 00:12:22;;;;;;;7.1;6.450001;;;;;;;19.35;55.20313;94396.14;;;;
2022/08/15 00:13:22;;;;;;;6.349999;5.75;;;;;;;19.43;55.16797;94387.86;;;;
2022/08/15 00:14:26;;;;;;;6.349999;5.75;;;;;;;19.43;55.16797;94387.86;;;;
2022/08/15 00:15:31;;;;;;;6.349999;5.75;;;;;;;19.43;55.16797;94387.86;;;;
2022/08/15 00:16:33;;;;;;;6.349999;5.75;;;;;;;19.43;55.16797;94387.86;;;;
2022/08/15 00:17:37;;;;;;;6.349999;5.75;;;;;;;19.43;55.16797;94387.86;;;;
2022/08/15 00:18:39;;;;;;;6.349999;5.75;;;;;;;19.43;55.16797;94387.86;;;;
2022/08/15 00:19:40;;;;;;;6.349999;5.75;;;;;;;19.43;55.16797;94387.86;;;;
2022/08/15 00:20:42;;;;;;;6.349999;5.75;;;;;;;19.43;55.16797;94387.86;;;;
2022/08/15 00:21:44;;;;;;;6.349999;5.75;;;;;;;19.43;55.16797;94387.86;;;;
2022/08/15 00:22:48;;;;;;;6.349999;5.75;;;;;;;19.43;55.16797;94387.86;;;;
2022/08/15 00:23:50;;;;;;;6.349999;5.75;;;;;;;19.43;55.16797;94387.86;;;;
2022/08/15 00:24:51;;;;;;;6.4;5.8;;;;;;;19.41;55.24316;94375.28;;;;
2022/08/15 00:25:51;;;;;;;6.4;5.8;;;;;;;19.41;55.24316;94375.28;;;;
2022/08/15 00:26:55;;;;;;;6.4;5.8;;;;;;;19.41;55.24316;94375.28;;;;
2022/08/15 00:27:58;;;;;;;6.4;5.8;;;;;;;19.41;55.24316;94375.28;;;;
2022/08/15 00:28:59;;;;;;;6.4;5.8;;;;;;;19.41;55.24316;94375.28;;;;
2022/08/15 00:30:03;;;;;;;6.4;5.8;;;;;;;19.41;55.24316;94375.28;;;;
2022/08/15 00:31:06;;;;;;;6.4;5.8;;;;;;;19.41;55.24316;94375.28;;;;
2022/08/15 00:32:10;;;;;;;6.4;5.8;;;;;;;19.41;55.24316;94375.28;;;;
2022/08/15 00:33:13;;;;;;;6.4;5.8;;;;;;;19.41;55.24316;94375.28;;;;
2022/08/15 00:34:15;;;;;;;6.4;5.8;;;;;;;19.41;55.24316;94375.28;;;;
2022/08/15 00:35:49;;;;;;;7.300001;5.6;;;;;;;19.48;55.28418;94378.94;;;;
2022/08/15 00:36:51;;;;;;;7.300001;5.6;;;;;;;19.48;55.28418;94378.94;;;;
2022/08/15 00:37:55;;;;;;;7.300001;5.6;;;;;;;19.48;55.28418;94378.94;;;;
2022/08/15 00:38:56;;;;;;;7.300001;5.6;;;;;;;19.48;55.28418;94378.94;;;;
2022/08/15 00:39:57;;;;;;;7.300001;5.6;;;;;;;19.48;55.28418;94378.94;;;;
2022/08/15 00:42:03;;;;;;;7.300001;5.6;;;;;;;19.48;55.28418;94378.94;;;;
2022/08/15 00:43:07;;;;;;;7.300001;5.6;;;;;;;19.48;55.28418;94378.94;;;;
2022/08/15 00:44:08;;;;;;;7.300001;5.6;;;;;;;19.48;55.28418;94378.94;;;;
2022/08/15 00:45:13;;;;;;;7.300001;5.6;;;;;;;19.48;55.28418;94378.94;;;;
2022/08/15 00:46:13;;;;;;;6.1;5.55;;;;;;;19.5;55.34277;94383.88;;;;
2022/08/15 00:47:16;;;;;;;6.1;5.55;;;;;;;19.5;55.34277;94383.88;;;;
2022/08/15 00:48:55;;;;;;;6.1;5.55;;;;;;;19.5;55.34277;94383.88;;;;
2022/08/15 00:49:56;;;;;;;6.1;5.55;;;;;;;19.5;55.34277;94383.88;;;;
2022/08/15 00:50:57;;;;;;;6.1;5.55;;;;;;;19.5;55.34277;94383.88;;;;
2022/08/15 00:51:59;;;;;;;6.1;5.55;;;;;;;19.5;55.34277;94383.88;;;;
2022/08/15 00:53:06;;;;;;;6.1;5.55;;;;;;;19.5;55.34277;94383.88;;;;
2022/08/15 00:54:10;;;;;;;6.1;5.55;;;;;;;19.5;55.34277;94383.88;;;;
2022/08/15 00:55:14;;;;;;;6.1;5.55;;;;;;;19.5;55.34277;94383.88;;;;
2022/08/15 00:56:16;;;;;;;6.15;5.55;;;;;;;19.58;55.38574;94387.26;;;;
2022/08/15 00:57:20;;;;;;;6.15;5.55;;;;;;;19.58;55.38574;94387.26;;;;
2022/08/15 00:58:24;;;;;;;6.15;5.55;;;;;;;19.58;55.38574;94387.26;;;;
2022/08/15 00:59:25;;;;;;;6.15;5.55;;;;;;;19.58;55.38574;94387.26;;;;
2022/08/15 01:00:29;;;;;;;6.15;5.55;;;;;;;19.58;55.38574;94387.26;;;;
2022/08/15 01:01:35;;;;;;;6.15;5.55;;;;;;;19.58;55.38574;94387.26;;;;
2022/08/15 01:02:36;;;;;;;6.15;5.55;;;;;;;19.58;55.38574;94387.26;;;;
2022/08/15 01:03:37;;;;;;;6.15;5.55;;;;;;;19.58;55.38574;94387.26;;;;
2022/08/15 01:04:40;;;;;;;6.15;5.55;;;;;;;19.58;55.38574;94387.26;;;;
2022/08/15 01:05:42;;;;;;;6.15;5.55;;;;;;;19.58;55.38574;94387.26;;;;
2022/08/15 01:06:45;;;;;;;6.249999;5.65;;;;;;;19.59;55.51855;94384.01;;;;
2022/08/15 01:07:47;;;;;;;6.249999;5.65;;;;;;;19.59;55.51855;94384.01;;;;
2022/08/15 01:08:48;;;;;;;6.249999;5.65;;;;;;;19.59;55.51855;94384.01;;;;
2022/08/15 01:09:49;;;;;;;6.249999;5.65;;;;;;;19.59;55.51855;94384.01;;;;
2022/08/15 01:10:52;;;;;;;6.249999;5.65;;;;;;;19.59;55.51855;94384.01;;;;
2022/08/15 01:11:54;;;;;;;6.249999;5.65;;;;;;;19.59;55.51855;94384.01;;;;
2022/08/15 01:13:00;;;;;;;6.249999;5.65;;;;;;;19.59;55.51855;94384.01;;;;
2022/08/15 01:14:01;;;;;;;6.249999;5.65;;;;;;;19.59;55.51855;94384.01;;;;
2022/08/15 01:15:03;;;;;;;6.249999;5.65;;;;;;;19.59;55.51855;94384.01;;;;
2022/08/15 01:16:09;;;;;;;6.249999;5.65;;;;;;;19.59;55.51855;94384.01;;;;
2022/08/15 01:17:09;;;;;;;6.249999;5.65;;;;;;;19.59;55.51855;94384.01;;;;
2022/08/15 01:18:12;;;;;;;6.150001;5.650001;;;;;;;19.64;55.65918;94381.14;;;;
2022/08/15 01:19:13;;;;;;;6.150001;5.650001;;;;;;;19.64;55.65918;94381.14;;;;
2022/08/15 01:20:21;;;;;;;6.150001;5.650001;;;;;;;19.64;55.65918;94381.14;;;;
2022/08/15 01:21:26;;;;;;;6.150001;5.650001;;;;;;;19.64;55.65918;94381.14;;;;
2022/08/15 01:22:35;;;;;;;6.150001;5.650001;;;;;;;19.64;55.65918;94381.14;;;;
2022/08/15 01:23:53;;;;;;;6.150001;5.650001;;;;;;;19.64;55.65918;94381.14;;;;
2022/08/15 01:25:03;;;;;;;6.150001;5.650001;;;;;;;19.64;55.65918;94381.14;;;;
2022/08/15 01:26:08;;;;;;;6.150001;5.650001;;;;;;;19.64;55.65918;94381.14;;;;
2022/08/15 01:27:10;;;;;;;6.150001;5.650001;;;;;;;19.64;55.65918;94381.14;;;;
2022/08/15 01:28:12;;;;;;;6.15;5.65;;;;;;;19.62;55.73242;94379.41;;;;
2022/08/15 01:29:16;;;;;;;6.15;5.65;;;;;;;19.62;55.73242;94379.41;;;;
2022/08/15 01:30:18;;;;;;;6.15;5.65;;;;;;;19.62;55.73242;94379.41;;;;
2022/08/15 01:31:22;;;;;;;6.15;5.65;;;;;;;19.62;55.73242;94379.41;;;;
2022/08/15 01:32:25;;;;;;;6.15;5.65;;;;;;;19.62;55.73242;94379.41;;;;
2022/08/15 01:33:25;;;;;;;6.15;5.65;;;;;;;19.62;55.73242;94379.41;;;;
2022/08/15 01:34:28;;;;;;;6.15;5.65;;;;;;;19.62;55.73242;94379.41;;;;
2022/08/15 01:35:29;;;;;;;6.15;5.65;;;;;;;19.62;55.73242;94379.41;;;;
2022/08/15 01:36:30;;;;;;;6.15;5.65;;;;;;;19.62;55.73242;94379.41;;;;
2022/08/15 01:37:31;;;;;;;6.15;5.65;;;;;;;19.62;55.73242;94379.41;;;;
2022/08/15 01:38:32;;;;;;;6.15;5.65;;;;;;;19.62;55.73242;94379.41;;;;
2022/08/15 01:39:37;;;;;;;6.399999;5.749999;;;;;;;19.58;55.99316;94386.86;;;;
2022/08/15 01:40:43;;;;;;;6.399999;5.749999;;;;;;;19.58;55.99316;94386.86;;;;
2022/08/15 01:41:55;;;;;;;6.399999;5.749999;;;;;;;19.58;55.99316;94386.86;;;;
2022/08/15 01:43:02;;;;;;;6.399999;5.749999;;;;;;;19.58;55.99316;94386.86;;;;
2022/08/15 01:44:08;;;;;;;6.399999;5.749999;;;;;;;19.58;55.99316;94386.86;;;;
2022/08/15 01:45:18;;;;;;;6.399999;5.749999;;;;;;;19.58;55.99316;94386.86;;;;
2022/08/15 01:46:23;;;;;;;6.399999;5.749999;;;;;;;19.58;55.99316;94386.86;;;;
2022/08/15 01:47:28;;;;;;;6.399999;5.749999;;;;;;;19.58;55.99316;94386.86;;;;
2022/08/15 01:48:36;;;;;;;6.399999;5.749999;;;;;;;19.58;55.99316;94386.86;;;;
2022/08/15 01:49:44;;;;;;;6.5;5.800001;;;;;;;19.43;56.31641;94386.52;;;;
2022/08/15 01:50:51;;;;;;;6.5;5.800001;;;;;;;19.43;56.31641;94386.52;;;;
2022/08/15 01:51:59;;;;;;;6.5;5.800001;;;;;;;19.43;56.31641;94386.52;;;;
2022/08/15 01:53:03;;;;;;;6.5;5.800001;;;;;;;19.43;56.31641;94386.52;;;;
2022/08/15 01:54:08;;;;;;;6.5;5.800001;;;;;;;19.43;56.31641;94386.52;;;;
2022/08/15 01:55:13;;;;;;;6.5;5.800001;;;;;;;19.43;56.31641;94386.52;;;;
2022/08/15 01:56:15;;;;;;;6.5;5.800001;;;;;;;19.43;56.31641;94386.52;;;;
2022/08/15 01:57:21;;;;;;;6.5;5.800001;;;;;;;19.43;56.31641;94386.52;;;;
2022/08/15 01:58:22;;;;;;;6.5;5.800001;;;;;;;19.43;56.31641;94386.52;;;;
2022/08/15 01:59:24;;;;;;;6.5;5.800001;;;;;;;19.43;56.31641;94386.52;;;;
2022/08/15 02:00:25;;;;;;;6.15;5.649999;;;;;;;19.39;56.63184;94398.49;;;;
2022/08/15 02:01:25;;;;;;;6.15;5.649999;;;;;;;19.39;56.63184;94398.49;;;;
2022/08/15 02:02:40;;;;;;;6.15;5.649999;;;;;;;19.39;56.63184;94398.49;;;;
2022/08/15 02:03:40;;;;;;;6.15;5.649999;;;;;;;19.39;56.63184;94398.49;;;;
2022/08/15 02:04:43;;;;;;;6.15;5.649999;;;;;;;19.39;56.63184;94398.49;;;;
2022/08/15 02:05:44;;;;;;;6.15;5.649999;;;;;;;19.39;56.63184;94398.49;;;;
2022/08/15 02:06:45;;;;;;;6.15;5.649999;;;;;;;19.39;56.63184;94398.49;;;;
2022/08/15 02:07:46;;;;;;;6.15;5.649999;;;;;;;19.39;56.63184;94398.49;;;;
2022/08/15 02:08:47;;;;;;;6.15;5.649999;;;;;;;19.39;56.63184;94398.49;;;;
2022/08/15 02:09:47;;;;;;;6.15;5.649999;;;;;;;19.39;56.63184;94398.49;;;;
2022/08/15 02:10:49;;;;;;;6.7;5.849999;;;;;;;19.32;56.89941;94402.08;;;;
2022/08/15 02:11:50;;;;;;;6.7;5.849999;;;;;;;19.32;56.89941;94402.08;;;;
2022/08/15 02:12:51;;;;;;;6.7;5.849999;;;;;;;19.32;56.89941;94402.08;;;;
2022/08/15 02:13:54;;;;;;;6.7;5.849999;;;;;;;19.32;56.89941;94402.08;;;;
2022/08/15 02:14:56;;;;;;;6.7;5.849999;;;;;;;19.32;56.89941;94402.08;;;;
2022/08/15 02:16:00;;;;;;;6.7;5.849999;;;;;;;19.32;56.89941;94402.08;;;;
2022/08/15 02:17:01;;;;;;;6.7;5.849999;;;;;;;19.32;56.89941;94402.08;;;;
2022/08/15 02:18:02;;;;;;;6.7;5.849999;;;;;;;19.32;56.89941;94402.08;;;;
2022/08/15 02:19:03;;;;;;;6.7;5.849999;;;;;;;19.32;56.89941;94402.08;;;;
2022/08/15 02:20:06;;;;;;;6.7;5.849999;;;;;;;19.32;56.89941;94402.08;;;;
2022/08/15 02:21:08;;;;;;;6.7;5.849999;;;;;;;19.32;56.89941;94402.08;;;;
2022/08/15 02:22:09;;;;;;;6.4;5.8;;;;;;;19.33;57.09766;94408.22;;;;
2022/08/15 02:23:09;;;;;;;6.4;5.8;;;;;;;19.33;57.09766;94408.22;;;;
2022/08/15 02:24:10;;;;;;;6.4;5.8;;;;;;;19.33;57.09766;94408.22;;;;
2022/08/15 02:25:15;;;;;;;6.4;5.8;;;;;;;19.33;57.09766;94408.22;;;;
2022/08/15 02:26:15;;;;;;;6.4;5.8;;;;;;;19.33;57.09766;94408.22;;;;
2022/08/15 02:27:16;;;;;;;6.4;5.8;;;;;;;19.33;57.09766;94408.22;;;;
2022/08/15 02:28:16;;;;;;;6.4;5.8;;;;;;;19.33;57.09766;94408.22;;;;
2022/08/15 02:29:18;;;;;;;6.4;5.8;;;;;;;19.33;57.09766;94408.22;;;;
2022/08/15 02:30:19;;;;;;;6.4;5.8;;;;;;;19.33;57.09766;94408.22;;;;
2022/08/15 02:31:25;;;;;;;6.4;5.8;;;;;;;19.33;57.09766;94408.22;;;;
2022/08/15 02:32:29;;;;;;;6.099999;5.05;;;;;;;19.28;57.45605;94397.83;;;;
2022/08/15 02:33:29;;;;;;;6.099999;5.05;;;;;;;19.28;57.45605;94397.83;;;;
2022/08/15 02:34:34;;;;;;;6.099999;5.05;;;;;;;19.28;57.45605;94397.83;;;;
2022/08/15 02:35:34;;;;;;;6.099999;5.05;;;;;;;19.28;57.45605;94397.83;;;;
2022/08/15 02:36:35;;;;;;;6.099999;5.05;;;;;;;19.28;57.45605;94397.83;;;;
2022/08/15 02:37:38;;;;;;;6.099999;5.05;;;;;;;19.28;57.45605;94397.83;;;;
2022/08/15 02:38:39;;;;;;;6.099999;5.05;;;;;;;19.28;57.45605;94397.83;;;;
2022/08/15 02:39:40;;;;;;;6.099999;5.05;;;;;;;19.28;57.45605;94397.83;;;;
2022/08/15 02:40:41;;;;;;;6.099999;5.05;;;;;;;19.28;57.45605;94397.83;;;;
2022/08/15 02:41:41;;;;;;;6.099999;5.05;;;;;;;19.28;57.45605;94397.83;;;;
2022/08/15 02:42:46;;;;;;;5.25;4.75;;;;;;;19.32;57.66016;94413.17;;;;
2022/08/15 02:43:46;;;;;;;5.25;4.75;;;;;;;19.32;57.66016;94413.17;;;;
2022/08/15 02:44:50;;;;;;;5.25;4.75;;;;;;;19.32;57.66016;94413.17;;;;
2022/08/15 02:45:50;;;;;;;5.25;4.75;;;;;;;19.32;57.66016;94413.17;;;;
2022/08/15 02:46:51;;;;;;;5.25;4.75;;;;;;;19.32;57.66016;94413.17;;;;
2022/08/15 02:47:54;;;;;;;5.25;4.75;;;;;;;19.32;57.66016;94413.17;;;;
2022/08/15 02:48:54;;;;;;;5.25;4.75;;;;;;;19.32;57.66016;94413.17;;;;
2022/08/15 02:49:55;;;;;;;5.25;4.75;;;;;;;19.32;57.66016;94413.17;;;;
2022/08/15 02:50:56;;;;;;;5.25;4.75;;;;;;;19.32;57.66016;94413.17;;;;
2022/08/15 02:51:56;;;;;;;5.25;4.75;;;;;;;19.32;57.66016;94413.17;;;;
2022/08/15 02:52:57;;;;;;;5.25;4.75;;;;;;;19.32;57.66016;94413.17;;;;
2022/08/15 02:53:58;;;;;;;5.850001;4.9;;;;;;;19.34;57.83984;94410.61;;;;
2022/08/15 02:54:59;;;;;;;5.850001;4.9;;;;;;;19.34;57.83984;94410.61;;;;
2022/08/15 02:55:59;;;;;;;5.850001;4.9;;;;;;;19.34;57.83984;94410.61;;;;
2022/08/15 02:57:00;;;;;;;5.850001;4.9;;;;;;;19.34;57.83984;94410.61;;;;
2022/08/15 02:58:01;;;;;;;5.850001;4.9;;;;;;;19.34;57.83984;94410.61;;;;
2022/08/15 02:59:01;;;;;;;5.850001;4.9;;;;;;;19.34;57.83984;94410.61;;;;
2022/08/15 03:00:03;;;;;;;5.850001;4.9;;;;;;;19.34;57.83984;94410.61;;;;
2022/08/15 03:01:08;;;;;;;5.850001;4.9;;;;;;;19.34;57.83984;94410.61;;;;
2022/08/15 03:02:10;;;;;;;5.850001;4.9;;;;;;;19.34;57.83984;94410.61;;;;
2022/08/15 03:03:11;;;;;;;5.850001;4.9;;;;;;;19.34;57.83984;94410.61;;;;
2022/08/15 03:04:14;;;;;;;5.199999;4.45;;;;;;;19.56;57.69043;94412.75;;;;
2022/08/15 03:05:19;;;;;;;5.199999;4.45;;;;;;;19.56;57.69043;94412.75;;;;
2022/08/15 03:06:19;;;;;;;5.199999;4.45;;;;;;;19.56;57.69043;94412.75;;;;
2022/08/15 03:07:22;;;;;;;5.199999;4.45;;;;;;;19.56;57.69043;94412.75;;;;
2022/08/15 03:08:23;;;;;;;5.199999;4.45;;;;;;;19.56;57.69043;94412.75;;;;
2022/08/15 03:09:24;;;;;;;5.199999;4.45;;;;;;;19.56;57.69043;94412.75;;;;
2022/08/15 03:10:25;;;;;;;5.199999;4.45;;;;;;;19.56;57.69043;94412.75;;;;
2022/08/15 03:11:25;;;;;;;5.199999;4.45;;;;;;;19.56;57.69043;94412.75;;;;
2022/08/15 03:12:27;;;;;;;5.199999;4.45;;;;;;;19.56;57.69043;94412.75;;;;
2022/08/15 03:13:27;;;;;;;5.199999;4.45;;;;;;;19.56;57.69043;94412.75;;;;
2022/08/15 03:14:28;;;;;;;5.199999;4.45;;;;;;;19.56;57.69043;94412.75;;;;
2022/08/15 03:15:30;;;;;;;5.7;4.849999;;;;;;;19.68;57.51855;94417;;;;
2022/08/15 03:16:40;;;;;;;5.7;4.849999;;;;;;;19.68;57.51855;94417;;;;
2022/08/15 03:17:44;;;;;;;5.7;4.849999;;;;;;;19.68;57.51855;94417;;;;
2022/08/15 03:18:45;;;;;;;5.7;4.849999;;;;;;;19.68;57.51855;94417;;;;
2022/08/15 03:19:48;;;;;;;5.7;4.849999;;;;;;;19.68;57.51855;94417;;;;
2022/08/15 03:20:51;;;;;;;5.7;4.849999;;;;;;;19.68;57.51855;94417;;;;
2022/08/15 03:21:52;;;;;;;5.7;4.849999;;;;;;;19.68;57.51855;94417;;;;
2022/08/15 03:22:53;;;;;;;5.7;4.849999;;;;;;;19.68;57.51855;94417;;;;
2022/08/15 03:23:54;;;;;;;5.7;4.849999;;;;;;;19.68;57.51855;94417;;;;
2022/08/15 03:24:55;;;;;;;5.7;4.849999;;;;;;;19.68;57.51855;94417;;;;
2022/08/15 03:25:56;;;;;;;5.199999;4.699999;;;;;;;19.88;57.37891;94431.61;;;;
2022/08/15 03:26:58;;;;;;;5.199999;4.699999;;;;;;;19.88;57.37891;94431.61;;;;
2022/08/15 03:27:58;;;;;;;5.199999;4.699999;;;;;;;19.88;57.37891;94431.61;;;;
2022/08/15 03:28:59;;;;;;;5.199999;4.699999;;;;;;;19.88;57.37891;94431.61;;;;
2022/08/15 03:30:00;;;;;;;5.199999;4.699999;;;;;;;19.88;57.37891;94431.61;;;;
2022/08/15 03:31:00;;;;;;;5.199999;4.699999;;;;;;;19.88;57.37891;94431.61;;;;
2022/08/15 03:32:06;;;;;;;5.199999;4.699999;;;;;;;19.88;57.37891;94431.61;;;;
2022/08/15 03:33:11;;;;;;;5.199999;4.699999;;;;;;;19.88;57.37891;94431.61;;;;
2022/08/15 03:34:12;;;;;;;5.199999;4.699999;;;;;;;19.88;57.37891;94431.61;;;;
2022/08/15 03:35:15;;;;;;;5.199999;4.699999;;;;;;;19.88;57.37891;94431.61;;;;
2022/08/15 03:36:17;;;;;;;4.950001;4.3;;;;;;;19.93;57.3623;94431.54;;;;
2022/08/15 03:37:20;;;;;;;4.950001;4.3;;;;;;;19.93;57.3623;94431.54;;;;
2022/08/15 03:38:21;;;;;;;4.950001;4.3;;;;;;;19.93;57.3623;94431.54;;;;
2022/08/15 03:39:21;;;;;;;4.950001;4.3;;;;;;;19.93;57.3623;94431.54;;;;
2022/08/15 03:40:22;;;;;;;4.950001;4.3;;;;;;;19.93;57.3623;94431.54;;;;
2022/08/15 03:41:23;;;;;;;4.950001;4.3;;;;;;;19.93;57.3623;94431.54;;;;
2022/08/15 03:42:25;;;;;;;4.950001;4.3;;;;;;;19.93;57.3623;94431.54;;;;
2022/08/15 03:43:27;;;;;;;4.950001;4.3;;;;;;;19.93;57.3623;94431.54;;;;
2022/08/15 03:44:29;;;;;;;4.950001;4.3;;;;;;;19.93;57.3623;94431.54;;;;
2022/08/15 03:45:30;;;;;;;4.950001;4.3;;;;;;;19.93;57.3623;94431.54;;;;
2022/08/15 03:46:31;;;;;;;4.950001;4.3;;;;;;;19.93;57.3623;94431.54;;;;
2022/08/15 03:47:32;;;;;;;5.05;4.45;;;;;;;20.05;57.34473;94443.42;;;;
2022/08/15 03:48:32;;;;;;;5.05;4.45;;;;;;;20.05;57.34473;94443.42;;;;
2022/08/15 03:49:36;;;;;;;5.05;4.45;;;;;;;20.05;57.34473;94443.42;;;;
2022/08/15 03:50:36;;;;;;;5.05;4.45;;;;;;;20.05;57.34473;94443.42;;;;
2022/08/15 03:51:37;;;;;;;5.05;4.45;;;;;;;20.05;57.34473;94443.42;;;;
2022/08/15 03:52:37;;;;;;;5.05;4.45;;;;;;;20.05;57.34473;94443.42;;;;
2022/08/15 03:53:48;;;;;;;5.05;4.45;;;;;;;20.05;57.34473;94443.42;;;;
2022/08/15 03:54:51;;;;;;;5.05;4.45;;;;;;;20.05;57.34473;94443.42;;;;
2022/08/15 03:55:52;;;;;;;5.05;4.45;;;;;;;20.05;57.34473;94443.42;;;;
2022/08/15 03:56:53;;;;;;;5.05;4.45;;;;;;;20.05;57.34473;94443.42;;;;
2022/08/15 03:57:53;;;;;;;4.4;3.95;;;;;;;20.13;57.33398;94446.82;;;;
2022/08/15 03:58:55;;;;;;;4.4;3.95;;;;;;;20.13;57.33398;94446.82;;;;
2022/08/15 03:59:56;;;;;;;4.4;3.95;;;;;;;20.13;57.33398;94446.82;;;;
2022/08/15 04:00:58;;;;;;;4.4;3.95;;;;;;;20.13;57.33398;94446.82;;;;
2022/08/15 04:02:00;;;;;;;4.4;3.95;;;;;;;20.13;57.33398;94446.82;;;;
2022/08/15 04:03:01;;;;;;;4.4;3.95;;;;;;;20.13;57.33398;94446.82;;;;
2022/08/15 04:04:05;;;;;;;4.4;3.95;;;;;;;20.13;57.33398;94446.82;;;;
2022/08/15 04:05:07;;;;;;;4.4;3.95;;;;;;;20.13;57.33398;94446.82;;;;
2022/08/15 04:06:09;;;;;;;4.4;3.95;;;;;;;20.13;57.33398;94446.82;;;;
2022/08/15 04:07:11;;;;;;;4.4;3.95;;;;;;;20.13;57.33398;94446.82;;;;
2022/08/15 04:08:13;;;;;;;5.049999;4.349999;;;;;;;20.26;57.39355;94439.53;;;;
2022/08/15 04:09:14;;;;;;;5.049999;4.349999;;;;;;;20.26;57.39355;94439.53;;;;
2022/08/15 04:10:14;;;;;;;5.049999;4.349999;;;;;;;20.26;57.39355;94439.53;;;;
2022/08/15 04:11:17;;;;;;;5.049999;4.349999;;;;;;;20.26;57.39355;94439.53;;;;
2022/08/15 04:12:20;;;;;;;5.049999;4.349999;;;;;;;20.26;57.39355;94439.53;;;;
2022/08/15 04:13:29;;;;;;;5.049999;4.349999;;;;;;;20.26;57.39355;94439.53;;;;
2022/08/15 04:14:30;;;;;;;5.049999;4.349999;;;;;;;20.26;57.39355;94439.53;;;;
2022/08/15 04:15:30;;;;;;;5.049999;4.349999;;;;;;;20.26;57.39355;94439.53;;;;
2022/08/15 04:16:31;;;;;;;5.049999;4.349999;;;;;;;20.26;57.39355;94439.53;;;;
2022/08/15 04:17:32;;;;;;;5.049999;4.349999;;;;;;;20.26;57.39355;94439.53;;;;
2022/08/15 04:18:32;;;;;;;5.049999;4.349999;;;;;;;20.26;57.39355;94439.53;;;;
2022/08/15 04:19:33;;;;;;;6.349999;4.4;;;;;;;20.29;57.47559;94447.41;;;;
2022/08/15 04:20:34;;;;;;;6.349999;4.4;;;;;;;20.29;57.47559;94447.41;;;;
2022/08/15 04:21:34;;;;;;;6.349999;4.4;;;;;;;20.29;57.47559;94447.41;;;;
2022/08/15 04:22:35;;;;;;;6.349999;4.4;;;;;;;20.29;57.47559;94447.41;;;;
2022/08/15 04:23:39;;;;;;;6.349999;4.4;;;;;;;20.29;57.47559;94447.41;;;;
2022/08/15 04:24:41;;;;;;;6.349999;4.4;;;;;;;20.29;57.47559;94447.41;;;;
2022/08/15 04:25:42;;;;;;;6.349999;4.4;;;;;;;20.29;57.47559;94447.41;;;;
2022/08/15 04:26:44;;;;;;;6.349999;4.4;;;;;;;20.29;57.47559;94447.41;;;;
2022/08/15 04:27:44;;;;;;;6.349999;4.4;;;;;;;20.29;57.47559;94447.41;;;;
2022/08/15 04:28:47;;;;;;;6.349999;4.4;;;;;;;20.29;57.47559;94447.41;;;;
2022/08/15 04:29:47;;;;;;;5.05;3.95;;;;;;;20.33;57.95703;94454.58;;;;
2022/08/15 04:30:48;;;;;;;5.05;3.95;;;;;;;20.33;57.95703;94454.58;;;;
2022/08/15 04:31:49;;;;;;;5.05;3.95;;;;;;;20.33;57.95703;94454.58;;;;
2022/08/15 04:32:50;;;;;;;5.05;3.95;;;;;;;20.33;57.95703;94454.58;;;;
2022/08/15 04:33:51;;;;;;;5.05;3.95;;;;;;;20.33;57.95703;94454.58;;;;
2022/08/15 04:34:52;;;;;;;5.05;3.95;;;;;;;20.33;57.95703;94454.58;;;;
2022/08/15 04:35:53;;;;;;;5.05;3.95;;;;;;;20.33;57.95703;94454.58;;;;
2022/08/15 04:36:56;;;;;;;5.05;3.95;;;;;;;20.33;57.95703;94454.58;;;;
2022/08/15 04:37:57;;;;;;;5.05;3.95;;;;;;;20.33;57.95703;94454.58;;;;
2022/08/15 04:38:58;;;;;;;5.05;3.95;;;;;;;20.33;57.95703;94454.58;;;;
2022/08/15 04:39:58;;;;;;;5.05;3.95;;;;;;;20.33;57.95703;94454.58;;;;
2022/08/15 04:40:59;;;;;;;5.55;4.45;;;;;;;20.24;58.3877;94461.3;;;;
2022/08/15 04:42:01;;;;;;;5.55;4.45;;;;;;;20.24;58.3877;94461.3;;;;
2022/08/15 04:43:02;;;;;;;5.55;4.45;;;;;;;20.24;58.3877;94461.3;;;;
2022/08/15 04:44:03;;;;;;;5.55;4.45;;;;;;;20.24;58.3877;94461.3;;;;
2022/08/15 04:45:04;;;;;;;5.55;4.45;;;;;;;20.24;58.3877;94461.3;;;;
2022/08/15 04:46:05;;;;;;;5.55;4.45;;;;;;;20.24;58.3877;94461.3;;;;
2022/08/15 04:47:06;;;;;;;5.55;4.45;;;;;;;20.24;58.3877;94461.3;;;;
2022/08/15 04:48:07;;;;;;;5.55;4.45;;;;;;;20.24;58.3877;94461.3;;;;
2022/08/15 04:49:10;;;;;;;5.55;4.45;;;;;;;20.24;58.3877;94461.3;;;;
2022/08/15 04:50:11;;;;;;;5.55;4.45;;;;;;;20.24;58.3877;94461.3;;;;
2022/08/15 04:51:11;;;;;;;5.2;4.7;;;;;;;19.99;59.55859;94473.3;;;;
2022/08/15 04:52:12;;;;;;;5.2;4.7;;;;;;;19.99;59.55859;94473.3;;;;
2022/08/15 04:53:15;;;;;;;5.2;4.7;;;;;;;19.99;59.55859;94473.3;;;;
2022/08/15 04:54:17;;;;;;;5.2;4.7;;;;;;;19.99;59.55859;94473.3;;;;
2022/08/15 04:55:19;;;;;;;5.2;4.7;;;;;;;19.99;59.55859;94473.3;;;;
2022/08/15 04:56:22;;;;;;;5.2;4.7;;;;;;;19.99;59.55859;94473.3;;;;
2022/08/15 04:57:22;;;;;;;5.2;4.7;;;;;;;19.99;59.55859;94473.3;;;;
2022/08/15 04:58:23;;;;;;;5.2;4.7;;;;;;;19.99;59.55859;94473.3;;;;
2022/08/15 04:59:23;;;;;;;5.2;4.7;;;;;;;19.99;59.55859;94473.3;;;;
2022/08/15 05:00:25;;;;;;;5.2;4.7;;;;;;;19.99;59.55859;94473.3;;;;
2022/08/15 05:01:28;;;;;;;5.75;5.1;;;;;;;19.71;60.27246;94472.74;;;;
2022/08/15 05:02:29;;;;;;;5.75;5.1;;;;;;;19.71;60.27246;94472.74;;;;
2022/08/15 05:03:30;;;;;;;5.75;5.1;;;;;;;19.71;60.27246;94472.74;;;;
2022/08/15 05:04:31;;;;;;;5.75;5.1;;;;;;;19.71;60.27246;94472.74;;;;
2022/08/15 05:05:32;;;;;;;5.75;5.1;;;;;;;19.71;60.27246;94472.74;;;;
2022/08/15 05:06:36;;;;;;;5.75;5.1;;;;;;;19.71;60.27246;94472.74;;;;
2022/08/15 05:07:37;;;;;;;5.75;5.1;;;;;;;19.71;60.27246;94472.74;;;;
2022/08/15 05:08:37;;;;;;;5.75;5.1;;;;;;;19.71;60.27246;94472.74;;;;
2022/08/15 05:09:39;;;;;;;5.75;5.1;;;;;;;19.71;60.27246;94472.74;;;;
2022/08/15 05:10:39;;;;;;;5.75;5.1;;;;;;;19.71;60.27246;94472.74;;;;
2022/08/15 05:11:40;;;;;;;5.75;5.1;;;;;;;19.71;60.27246;94472.74;;;;
2022/08/15 05:12:40;;;;;;;6.2;4.55;;;;;;;19.67;61.29004;94479.91;;;;
2022/08/15 05:13:41;;;;;;;6.2;4.55;;;;;;;19.67;61.29004;94479.91;;;;
2022/08/15 05:14:43;;;;;;;6.2;4.55;;;;;;;19.67;61.29004;94479.91;;;;
2022/08/15 05:15:43;;;;;;;6.2;4.55;;;;;;;19.67;61.29004;94479.91;;;;
2022/08/15 05:16:45;;;;;;;6.2;4.55;;;;;;;19.67;61.29004;94479.91;;;;
2022/08/15 05:17:46;;;;;;;6.2;4.55;;;;;;;19.67;61.29004;94479.91;;;;
2022/08/15 05:18:47;;;;;;;6.2;4.55;;;;;;;19.67;61.29004;94479.91;;;;
2022/08/15 05:19:47;;;;;;;6.2;4.55;;;;;;;19.67;61.29004;94479.91;;;;
2022/08/15 05:20:48;;;;;;;6.2;4.55;;;;;;;19.67;61.29004;94479.91;;;;
2022/08/15 05:21:48;;;;;;;6.2;4.55;;;;;;;19.67;61.29004;94479.91;;;;
2022/08/15 05:22:49;;;;;;;5.25;4.35;;;;;;;19.68;61.78809;94494;;;;
2022/08/15 05:23:54;;;;;;;5.25;4.35;;;;;;;19.68;61.78809;94494;;;;
2022/08/15 05:24:55;;;;;;;5.25;4.35;;;;;;;19.68;61.78809;94494;;;;
2022/08/15 05:25:55;;;;;;;5.25;4.35;;;;;;;19.68;61.78809;94494;;;;
2022/08/15 05:26:58;;;;;;;5.25;4.35;;;;;;;19.68;61.78809;94494;;;;
2022/08/15 05:27:59;;;;;;;5.25;4.35;;;;;;;19.68;61.78809;94494;;;;
2022/08/15 05:28:59;;;;;;;5.25;4.35;;;;;;;19.68;61.78809;94494;;;;
2022/08/15 05:30:00;;;;;;;5.25;4.35;;;;;;;19.68;61.78809;94494;;;;
2022/08/15 05:31:00;;;;;;;5.25;4.35;;;;;;;19.68;61.78809;94494;;;;
2022/08/15 05:32:05;;;;;;;5.25;4.35;;;;;;;19.68;61.78809;94494;;;;
2022/08/15 05:33:06;;;;;;;5.25;4.35;;;;;;;19.68;61.78809;94494;;;;
2022/08/15 05:34:10;;;;;;;5;4.15;;;;;;;19.86;61.79199;94489.98;;;;
2022/08/15 05:35:10;;;;;;;5;4.15;;;;;;;19.86;61.79199;94489.98;;;;
2022/08/15 05:36:11;;;;;;;5;4.15;;;;;;;19.86;61.79199;94489.98;;;;
2022/08/15 05:37:12;;;;;;;5;4.15;;;;;;;19.86;61.79199;94489.98;;;;
2022/08/15 05:38:14;;;;;;;5;4.15;;;;;;;19.86;61.79199;94489.98;;;;
2022/08/15 05:39:19;;;;;;;5;4.15;;;;;;;19.86;61.79199;94489.98;;;;
2022/08/15 05:40:21;;;;;;;5;4.15;;;;;;;19.86;61.79199;94489.98;;;;
2022/08/15 05:41:22;;;;;;;5;4.15;;;;;;;19.86;61.79199;94489.98;;;;
2022/08/15 05:42:30;;;;;;;5;4.15;;;;;;;19.86;61.79199;94489.98;;;;
2022/08/15 05:43:37;;;;;;;5;4.15;;;;;;;19.86;61.79199;94489.98;;;;
2022/08/15 05:44:48;;;;;;;5;4.5;;;;;;;19.93;61.98828;94488.69;;;;
2022/08/15 05:45:58;;;;;;;5;4.5;;;;;;;19.93;61.98828;94488.69;;;;
2022/08/15 05:47:09;;;;;;;5;4.5;;;;;;;19.93;61.98828;94488.69;;;;